sensor_id;sensor_type;location;lat;lon;timestamp;P1;durP1;ratioP1;P2;durP2;ratioP2
5867;SDS011;2960;49.142;7.768;2023-02-28T00:01:10;7.37;;;2.13;;
5867;SDS011;2960;49.142;7.768;2023-02-28T00:03:38;8.73;;;2.00;;
5867;SDS011;2960;49.142;7.768;2023-02-28T00:06:06;7.20;;;2.03;;
5867;SDS011;2960;49.142;7.768;2023-02-28T00:08:34;7.97;;;1.93;;
5867;SDS011;2960;49.142;7.768;2023-02-28T00:11:02;7.40;;;2.20;;
5867;SDS011;2960;49.142;7.768;2023-02-28T00:13:33;7.60;;;2.50;;
5867;SDS011;2960;49.142;7.768;2023-02-28T00:16:04;7.40;;;2.50;;
5867;SDS011;2960;49.142;7.768;2023-02-28T00:18:34;7.60;;;2.37;;
5867;SDS011;2960;49.142;7.768;2023-02-28T00:21:01;7.90;;;2.40;;
5867;SDS011;2960;49.142;7.768;2023-02-28T00:23:29;7.70;;;2.50;;
5867;SDS011;2960;49.142;7.768;2023-02-28T00:25:56;7.30;;;2.00;;
5867;SDS011;2960;49.142;7.768;2023-02-28T00:28:24;7.47;;;2.20;;
5867;SDS011;2960;49.142;7.768;2023-02-28T00:30:51;8.17;;;2.17;;
5867;SDS011;2960;49.142;7.768;2023-02-28T00:33:19;7.50;;;2.10;;
5867;SDS011;2960;49.142;7.768;2023-02-28T00:35:47;7.57;;;2.20;;
5867;SDS011;2960;49.142;7.768;2023-02-28T00:38:14;8.80;;;2.00;;
5867;SDS011;2960;49.142;7.768;2023-02-28T00:40:42;7.60;;;2.03;;
5867;SDS011;2960;49.142;7.768;2023-02-28T00:43:09;8.33;;;2.30;;
5867;SDS011;2960;49.142;7.768;2023-02-28T00:45:39;7.20;;;2.20;;
5867;SDS011;2960;49.142;7.768;2023-02-28T00:48:06;7.53;;;2.20;;
5867;SDS011;2960;49.142;7.768;2023-02-28T00:50:34;7.30;;;2.30;;
5867;SDS011;2960;49.142;7.768;2023-02-28T00:53:01;7.07;;;2.10;;
5867;SDS011;2960;49.142;7.768;2023-02-28T00:55:28;8.47;;;2.30;;
5867;SDS011;2960;49.142;7.768;2023-02-28T00:57:57;6.90;;;1.90;;
5867;SDS011;2960;49.142;7.768;2023-02-28T01:00:27;7.70;;;2.20;;
5867;SDS011;2960;49.142;7.768;2023-02-28T01:02:54;7.20;;;1.97;;
5867;SDS011;2960;49.142;7.768;2023-02-28T01:05:21;7.30;;;2.07;;
5867;SDS011;2960;49.142;7.768;2023-02-28T01:07:50;7.03;;;1.90;;
5867;SDS011;2960;49.142;7.768;2023-02-28T01:10:17;7.30;;;2.00;;
5867;SDS011;2960;49.142;7.768;2023-02-28T01:12:45;7.30;;;2.00;;
5867;SDS011;2960;49.142;7.768;2023-02-28T01:15:12;8.67;;;2.20;;
5867;SDS011;2960;49.142;7.768;2023-02-28T01:17:41;7.67;;;2.30;;
5867;SDS011;2960;49.142;7.768;2023-02-28T01:20:08;7.17;;;2.20;;
5867;SDS011;2960;49.142;7.768;2023-02-28T01:22:37;7.30;;;2.00;;
5867;SDS011;2960;49.142;7.768;2023-02-28T01:25:05;7.30;;;2.30;;
5867;SDS011;2960;49.142;7.768;2023-02-28T01:27:34;7.20;;;2.20;;
5867;SDS011;2960;49.142;7.768;2023-02-28T01:30:01;7.00;;;2.30;;
5867;SDS011;2960;49.142;7.768;2023-02-28T01:32:29;7.40;;;2.30;;
5867;SDS011;2960;49.142;7.768;2023-02-28T01:34:56;7.67;;;2.33;;
5867;SDS011;2960;49.142;7.768;2023-02-28T01:37:23;7.70;;;2.10;;
5867;SDS011;2960;49.142;7.768;2023-02-28T01:39:50;7.00;;;2.10;;
5867;SDS011;2960;49.142;7.768;2023-02-28T01:42:19;7.07;;;2.00;;
5867;SDS011;2960;49.142;7.768;2023-02-28T01:47:50;6.80;;;1.80;;
5867;SDS011;2960;49.142;7.768;2023-02-28T01:50:22;7.00;;;2.00;;
5867;SDS011;2960;49.142;7.768;2023-02-28T01:52:55;7.17;;;1.80;;
5867;SDS011;2960;49.142;7.768;2023-02-28T01:55:28;6.90;;;2.00;;
5867;SDS011;2960;49.142;7.768;2023-02-28T01:57:58;7.20;;;2.03;;
5867;SDS011;2960;49.142;7.768;2023-02-28T02:00:29;7.00;;;2.00;;
5867;SDS011;2960;49.142;7.768;2023-02-28T02:02:57;7.13;;;2.07;;
5867;SDS011;2960;49.142;7.768;2023-02-28T02:05:28;7.23;;;2.40;;
5867;SDS011;2960;49.142;7.768;2023-02-28T02:07:57;7.20;;;2.43;;
5867;SDS011;2960;49.142;7.768;2023-02-28T02:10:30;7.70;;;2.10;;
5867;SDS011;2960;49.142;7.768;2023-02-28T02:13:14;8.10;;;2.20;;
5867;SDS011;2960;49.142;7.768;2023-02-28T02:16:08;7.50;;;2.10;;
5867;SDS011;2960;49.142;7.768;2023-02-28T02:18:46;7.10;;;2.07;;
5867;SDS011;2960;49.142;7.768;2023-02-28T02:21:24;7.73;;;2.03;;
5867;SDS011;2960;49.142;7.768;2023-02-28T02:24:33;6.90;;;1.70;;
5867;SDS011;2960;49.142;7.768;2023-02-28T02:37:13;7.00;;;2.00;;
5867;SDS011;2960;49.142;7.768;2023-02-28T02:39:55;8.33;;;2.30;;
5867;SDS011;2960;49.142;7.768;2023-02-28T02:42:32;8.33;;;2.60;;
5867;SDS011;2960;49.142;7.768;2023-02-28T02:45:08;7.23;;;2.10;;
5867;SDS011;2960;49.142;7.768;2023-02-28T02:47:40;9.10;;;2.37;;
5867;SDS011;2960;49.142;7.768;2023-02-28T02:50:13;7.10;;;2.07;;
5867;SDS011;2960;49.142;7.768;2023-02-28T02:52:46;7.23;;;2.07;;
5867;SDS011;2960;49.142;7.768;2023-02-28T02:55:19;7.40;;;2.00;;
5867;SDS011;2960;49.142;7.768;2023-02-28T02:57:48;7.77;;;2.27;;
5867;SDS011;2960;49.142;7.768;2023-02-28T03:00:20;7.50;;;2.10;;
5867;SDS011;2960;49.142;7.768;2023-02-28T03:02:52;7.60;;;2.30;;
5867;SDS011;2960;49.142;7.768;2023-02-28T03:05:23;7.30;;;2.10;;
5867;SDS011;2960;49.142;7.768;2023-02-28T03:07:55;8.90;;;2.40;;
5867;SDS011;2960;49.142;7.768;2023-02-28T03:10:29;8.13;;;2.47;;
5867;SDS011;2960;49.142;7.768;2023-02-28T03:13:12;8.60;;;2.10;;
5867;SDS011;2960;49.142;7.768;2023-02-28T03:16:00;9.40;;;2.10;;
5867;SDS011;2960;49.142;7.768;2023-02-28T03:19:03;7.40;;;2.10;;
5867;SDS011;2960;49.142;7.768;2023-02-28T03:21:46;7.30;;;2.03;;
5867;SDS011;2960;49.142;7.768;2023-02-28T03:24:27;7.40;;;2.10;;
5867;SDS011;2960;49.142;7.768;2023-02-28T03:27:04;7.80;;;2.30;;
5867;SDS011;2960;49.142;7.768;2023-02-28T03:29:37;7.00;;;2.03;;
5867;SDS011;2960;49.142;7.768;2023-02-28T03:32:11;7.40;;;2.10;;
5867;SDS011;2960;49.142;7.768;2023-02-28T03:34:47;7.37;;;1.97;;
5867;SDS011;2960;49.142;7.768;2023-02-28T03:37:22;7.30;;;1.90;;
5867;SDS011;2960;49.142;7.768;2023-02-28T03:39:53;7.50;;;1.93;;
5867;SDS011;2960;49.142;7.768;2023-02-28T03:42:25;7.70;;;1.93;;
5867;SDS011;2960;49.142;7.768;2023-02-28T03:44:56;7.20;;;2.07;;
5867;SDS011;2960;49.142;7.768;2023-02-28T03:47:27;7.30;;;2.10;;
5867;SDS011;2960;49.142;7.768;2023-02-28T03:50:00;7.43;;;2.10;;
5867;SDS011;2960;49.142;7.768;2023-02-28T03:52:33;7.80;;;1.97;;
5867;SDS011;2960;49.142;7.768;2023-02-28T03:55:07;7.20;;;1.70;;
5867;SDS011;2960;49.142;7.768;2023-02-28T03:57:39;7.20;;;2.03;;
5867;SDS011;2960;49.142;7.768;2023-02-28T04:00:16;7.43;;;2.17;;
5867;SDS011;2960;49.142;7.768;2023-02-28T04:02:48;7.70;;;1.80;;
5867;SDS011;2960;49.142;7.768;2023-02-28T04:05:17;7.63;;;2.03;;
5867;SDS011;2960;49.142;7.768;2023-02-28T04:07:45;6.93;;;1.90;;
5867;SDS011;2960;49.142;7.768;2023-02-28T04:10:14;7.17;;;1.70;;
5867;SDS011;2960;49.142;7.768;2023-02-28T04:12:42;7.10;;;1.90;;
5867;SDS011;2960;49.142;7.768;2023-02-28T04:15:09;7.40;;;1.83;;
5867;SDS011;2960;49.142;7.768;2023-02-28T04:17:37;7.03;;;1.90;;
5867;SDS011;2960;49.142;7.768;2023-02-28T04:20:04;7.10;;;1.90;;
5867;SDS011;2960;49.142;7.768;2023-02-28T04:22:34;7.20;;;1.97;;
5867;SDS011;2960;49.142;7.768;2023-02-28T04:25:02;7.47;;;1.80;;
5867;SDS011;2960;49.142;7.768;2023-02-28T04:27:33;7.30;;;1.90;;
5867;SDS011;2960;49.142;7.768;2023-02-28T04:30:00;7.10;;;1.80;;
5867;SDS011;2960;49.142;7.768;2023-02-28T04:32:27;7.63;;;1.90;;
5867;SDS011;2960;49.142;7.768;2023-02-28T04:34:54;7.50;;;1.90;;
5867;SDS011;2960;49.142;7.768;2023-02-28T04:37:21;7.50;;;1.70;;
5867;SDS011;2960;49.142;7.768;2023-02-28T04:39:52;7.73;;;1.70;;
5867;SDS011;2960;49.142;7.768;2023-02-28T04:42:22;7.10;;;1.47;;
5867;SDS011;2960;49.142;7.768;2023-02-28T04:44:51;7.10;;;1.60;;
5867;SDS011;2960;49.142;7.768;2023-02-28T04:47:18;7.20;;;1.80;;
5867;SDS011;2960;49.142;7.768;2023-02-28T04:49:45;7.40;;;1.80;;
5867;SDS011;2960;49.142;7.768;2023-02-28T04:52:14;7.17;;;2.00;;
5867;SDS011;2960;49.142;7.768;2023-02-28T04:54:41;6.87;;;1.53;;
5867;SDS011;2960;49.142;7.768;2023-02-28T04:57:08;7.67;;;1.80;;
5867;SDS011;2960;49.142;7.768;2023-02-28T04:59:35;6.80;;;1.60;;
5867;SDS011;2960;49.142;7.768;2023-02-28T05:02:03;7.20;;;1.90;;
5867;SDS011;2960;49.142;7.768;2023-02-28T05:04:31;6.87;;;1.70;;
5867;SDS011;2960;49.142;7.768;2023-02-28T05:07:00;7.07;;;1.90;;
5867;SDS011;2960;49.142;7.768;2023-02-28T05:09:27;7.63;;;1.70;;
5867;SDS011;2960;49.142;7.768;2023-02-28T05:11:54;7.90;;;1.97;;
5867;SDS011;2960;49.142;7.768;2023-02-28T05:14:21;7.30;;;1.87;;
5867;SDS011;2960;49.142;7.768;2023-02-28T05:16:48;7.47;;;1.80;;
5867;SDS011;2960;49.142;7.768;2023-02-28T05:19:17;7.00;;;1.80;;
5867;SDS011;2960;49.142;7.768;2023-02-28T05:21:50;7.57;;;1.90;;
5867;SDS011;2960;49.142;7.768;2023-02-28T05:24:20;6.80;;;1.67;;
5867;SDS011;2960;49.142;7.768;2023-02-28T05:26:49;7.40;;;1.93;;
5867;SDS011;2960;49.142;7.768;2023-02-28T05:29:17;8.00;;;2.10;;
5867;SDS011;2960;49.142;7.768;2023-02-28T05:31:45;7.03;;;1.80;;
5867;SDS011;2960;49.142;7.768;2023-02-28T05:34:16;7.17;;;1.90;;
5867;SDS011;2960;49.142;7.768;2023-02-28T05:36:43;8.10;;;2.00;;
5867;SDS011;2960;49.142;7.768;2023-02-28T05:39:12;7.67;;;1.90;;
5867;SDS011;2960;49.142;7.768;2023-02-28T05:41:40;7.80;;;1.83;;
5867;SDS011;2960;49.142;7.768;2023-02-28T05:44:07;7.13;;;1.80;;
5867;SDS011;2960;49.142;7.768;2023-02-28T05:46:35;7.90;;;2.33;;
5867;SDS011;2960;49.142;7.768;2023-02-28T05:49:03;8.03;;;2.07;;
5867;SDS011;2960;49.142;7.768;2023-02-28T05:51:31;7.80;;;1.97;;
5867;SDS011;2960;49.142;7.768;2023-02-28T05:53:59;9.00;;;1.80;;
5867;SDS011;2960;49.142;7.768;2023-02-28T05:56:27;7.93;;;1.90;;
5867;SDS011;2960;49.142;7.768;2023-02-28T05:58:56;7.40;;;2.00;;
5867;SDS011;2960;49.142;7.768;2023-02-28T06:01:30;7.30;;;2.00;;
5867;SDS011;2960;49.142;7.768;2023-02-28T06:04:00;6.83;;;1.80;;
5867;SDS011;2960;49.142;7.768;2023-02-28T06:06:31;7.70;;;1.90;;
5867;SDS011;2960;49.142;7.768;2023-02-28T06:08:59;7.67;;;1.73;;
5867;SDS011;2960;49.142;7.768;2023-02-28T06:11:30;6.90;;;1.73;;
5867;SDS011;2960;49.142;7.768;2023-02-28T06:13:57;7.47;;;1.90;;
5867;SDS011;2960;49.142;7.768;2023-02-28T06:16:26;7.37;;;1.90;;
5867;SDS011;2960;49.142;7.768;2023-02-28T06:18:56;6.93;;;1.70;;
5867;SDS011;2960;49.142;7.768;2023-02-28T06:21:24;7.40;;;1.90;;
5867;SDS011;2960;49.142;7.768;2023-02-28T06:23:54;7.00;;;1.80;;
5867;SDS011;2960;49.142;7.768;2023-02-28T06:26:23;7.60;;;2.07;;
5867;SDS011;2960;49.142;7.768;2023-02-28T06:28:50;8.23;;;1.97;;
5867;SDS011;2960;49.142;7.768;2023-02-28T06:31:17;7.30;;;2.07;;
5867;SDS011;2960;49.142;7.768;2023-02-28T06:33:45;7.40;;;2.10;;
5867;SDS011;2960;49.142;7.768;2023-02-28T06:36:13;7.70;;;1.90;;
5867;SDS011;2960;49.142;7.768;2023-02-28T06:38:42;8.40;;;1.90;;
5867;SDS011;2960;49.142;7.768;2023-02-28T06:41:11;7.23;;;1.83;;
5867;SDS011;2960;49.142;7.768;2023-02-28T06:43:39;7.20;;;1.93;;
5867;SDS011;2960;49.142;7.768;2023-02-28T06:46:08;7.93;;;2.37;;
5867;SDS011;2960;49.142;7.768;2023-02-28T06:48:39;7.80;;;2.33;;
5867;SDS011;2960;49.142;7.768;2023-02-28T06:51:08;7.53;;;2.20;;
5867;SDS011;2960;49.142;7.768;2023-02-28T06:53:38;7.70;;;2.37;;
5867;SDS011;2960;49.142;7.768;2023-02-28T06:56:05;7.00;;;1.83;;
5867;SDS011;2960;49.142;7.768;2023-02-28T06:58:36;7.13;;;1.97;;
5867;SDS011;2960;49.142;7.768;2023-02-28T07:01:04;7.13;;;2.00;;
5867;SDS011;2960;49.142;7.768;2023-02-28T07:03:34;8.97;;;2.70;;
5867;SDS011;2960;49.142;7.768;2023-02-28T07:06:02;7.50;;;2.30;;
5867;SDS011;2960;49.142;7.768;2023-02-28T07:08:32;8.00;;;2.60;;
5867;SDS011;2960;49.142;7.768;2023-02-28T07:11:01;7.87;;;2.30;;
5867;SDS011;2960;49.142;7.768;2023-02-28T07:13:29;8.17;;;2.53;;
5867;SDS011;2960;49.142;7.768;2023-02-28T07:16:00;7.80;;;2.20;;
5867;SDS011;2960;49.142;7.768;2023-02-28T07:18:31;8.30;;;2.17;;
5867;SDS011;2960;49.142;7.768;2023-02-28T07:21:03;8.00;;;2.53;;
5867;SDS011;2960;49.142;7.768;2023-02-28T07:23:32;7.87;;;2.40;;
5867;SDS011;2960;49.142;7.768;2023-02-28T07:26:03;9.70;;;3.00;;
5867;SDS011;2960;49.142;7.768;2023-02-28T07:28:30;8.20;;;2.73;;
5867;SDS011;2960;49.142;7.768;2023-02-28T07:31:03;9.97;;;2.80;;
5867;SDS011;2960;49.142;7.768;2023-02-28T07:33:33;9.60;;;3.23;;
5867;SDS011;2960;49.142;7.768;2023-02-28T07:36:01;9.70;;;3.03;;
5867;SDS011;2960;49.142;7.768;2023-02-28T07:38:29;8.53;;;2.87;;
5867;SDS011;2960;49.142;7.768;2023-02-28T07:40:57;8.80;;;3.10;;
5867;SDS011;2960;49.142;7.768;2023-02-28T07:43:24;10.57;;;3.10;;
5867;SDS011;2960;49.142;7.768;2023-02-28T07:45:51;8.90;;;2.90;;
5867;SDS011;2960;49.142;7.768;2023-02-28T07:48:19;9.37;;;3.07;;
5867;SDS011;2960;49.142;7.768;2023-02-28T07:50:53;7.97;;;2.67;;
5867;SDS011;2960;49.142;7.768;2023-02-28T07:53:21;8.53;;;2.63;;
5867;SDS011;2960;49.142;7.768;2023-02-28T07:55:48;8.63;;;2.73;;
5867;SDS011;2960;49.142;7.768;2023-02-28T07:58:15;8.33;;;2.47;;
5867;SDS011;2960;49.142;7.768;2023-02-28T08:00:42;8.27;;;2.80;;
5867;SDS011;2960;49.142;7.768;2023-02-28T08:03:10;8.50;;;3.10;;
5867;SDS011;2960;49.142;7.768;2023-02-28T08:05:40;9.10;;;3.10;;
5867;SDS011;2960;49.142;7.768;2023-02-28T08:08:07;9.30;;;2.73;;
5867;SDS011;2960;49.142;7.768;2023-02-28T08:10:36;10.60;;;3.47;;
5867;SDS011;2960;49.142;7.768;2023-02-28T08:13:03;8.60;;;3.20;;
5867;SDS011;2960;49.142;7.768;2023-02-28T08:15:30;10.30;;;3.30;;
5867;SDS011;2960;49.142;7.768;2023-02-28T08:17:57;8.70;;;3.00;;
5867;SDS011;2960;49.142;7.768;2023-02-28T08:20:25;8.27;;;2.47;;
5867;SDS011;2960;49.142;7.768;2023-02-28T08:22:57;8.27;;;2.83;;
5867;SDS011;2960;49.142;7.768;2023-02-28T08:25:24;10.30;;;2.80;;
5867;SDS011;2960;49.142;7.768;2023-02-28T08:27:51;8.60;;;2.67;;
5867;SDS011;2960;49.142;7.768;2023-02-28T08:30:18;8.90;;;3.00;;
5867;SDS011;2960;49.142;7.768;2023-02-28T08:32:45;8.33;;;2.40;;
5867;SDS011;2960;49.142;7.768;2023-02-28T08:35:12;9.07;;;2.57;;
5867;SDS011;2960;49.142;7.768;2023-02-28T08:37:39;8.53;;;2.77;;
5867;SDS011;2960;49.142;7.768;2023-02-28T08:40:09;8.30;;;3.23;;
5867;SDS011;2960;49.142;7.768;2023-02-28T08:42:38;10.07;;;2.83;;
5867;SDS011;2960;49.142;7.768;2023-02-28T08:45:06;8.93;;;3.00;;
5867;SDS011;2960;49.142;7.768;2023-02-28T08:47:33;9.43;;;2.60;;
5867;SDS011;2960;49.142;7.768;2023-02-28T08:50:00;9.07;;;3.23;;
5867;SDS011;2960;49.142;7.768;2023-02-28T08:52:28;9.00;;;3.17;;
5867;SDS011;2960;49.142;7.768;2023-02-28T08:54:55;8.70;;;3.13;;
5867;SDS011;2960;49.142;7.768;2023-02-28T08:57:26;8.70;;;2.70;;
5867;SDS011;2960;49.142;7.768;2023-02-28T08:59:53;9.60;;;3.43;;
5867;SDS011;2960;49.142;7.768;2023-02-28T09:02:20;8.80;;;3.07;;
5867;SDS011;2960;49.142;7.768;2023-02-28T09:04:47;9.60;;;3.10;;
5867;SDS011;2960;49.142;7.768;2023-02-28T09:07:14;8.63;;;3.00;;
5867;SDS011;2960;49.142;7.768;2023-02-28T09:09:41;9.00;;;3.10;;
5867;SDS011;2960;49.142;7.768;2023-02-28T09:12:18;8.67;;;2.77;;
5867;SDS011;2960;49.142;7.768;2023-02-28T09:14:47;8.43;;;2.80;;
5867;SDS011;2960;49.142;7.768;2023-02-28T09:17:14;8.93;;;2.80;;
5867;SDS011;2960;49.142;7.768;2023-02-28T09:19:41;12.60;;;3.50;;
5867;SDS011;2960;49.142;7.768;2023-02-28T09:22:09;11.20;;;3.30;;
5867;SDS011;2960;49.142;7.768;2023-02-28T09:24:37;10.27;;;3.20;;
5867;SDS011;2960;49.142;7.768;2023-02-28T09:27:04;9.33;;;3.00;;
5867;SDS011;2960;49.142;7.768;2023-02-28T09:29:32;8.87;;;3.40;;
5867;SDS011;2960;49.142;7.768;2023-02-28T09:32:02;8.97;;;3.17;;
5867;SDS011;2960;49.142;7.768;2023-02-28T09:34:30;9.30;;;2.90;;
5867;SDS011;2960;49.142;7.768;2023-02-28T09:36:57;12.73;;;3.60;;
5867;SDS011;2960;49.142;7.768;2023-02-28T09:39:25;9.53;;;3.70;;
5867;SDS011;2960;49.142;7.768;2023-02-28T09:41:53;9.47;;;3.60;;
5867;SDS011;2960;49.142;7.768;2023-02-28T09:44:23;8.73;;;3.47;;
5867;SDS011;2960;49.142;7.768;2023-02-28T09:46:57;8.60;;;3.10;;
5867;SDS011;2960;49.142;7.768;2023-02-28T09:49:37;9.17;;;3.47;;
5867;SDS011;2960;49.142;7.768;2023-02-28T09:52:12;10.93;;;3.57;;
5867;SDS011;2960;49.142;7.768;2023-02-28T09:54:44;9.60;;;3.67;;
5867;SDS011;2960;49.142;7.768;2023-02-28T09:57:15;11.50;;;3.97;;
5867;SDS011;2960;49.142;7.768;2023-02-28T09:59:53;12.20;;;4.10;;
5867;SDS011;2960;49.142;7.768;2023-02-28T10:05:33;15.20;;;4.13;;
5867;SDS011;2960;49.142;7.768;2023-02-28T10:08:10;9.07;;;3.50;;
5867;SDS011;2960;49.142;7.768;2023-02-28T10:10:42;10.20;;;4.00;;
5867;SDS011;2960;49.142;7.768;2023-02-28T10:13:19;9.97;;;3.90;;
5867;SDS011;2960;49.142;7.768;2023-02-28T10:15:52;9.73;;;3.60;;
5867;SDS011;2960;49.142;7.768;2023-02-28T10:18:26;10.17;;;3.83;;
5867;SDS011;2960;49.142;7.768;2023-02-28T10:20:59;9.97;;;3.70;;
5867;SDS011;2960;49.142;7.768;2023-02-28T10:23:28;10.00;;;4.00;;
5867;SDS011;2960;49.142;7.768;2023-02-28T10:25:59;9.87;;;3.70;;
5867;SDS011;2960;49.142;7.768;2023-02-28T10:28:34;9.63;;;3.80;;
5867;SDS011;2960;49.142;7.768;2023-02-28T10:31:02;11.20;;;3.90;;
5867;SDS011;2960;49.142;7.768;2023-02-28T10:33:32;9.50;;;3.77;;
5867;SDS011;2960;49.142;7.768;2023-02-28T10:36:02;9.87;;;4.00;;
5867;SDS011;2960;49.142;7.768;2023-02-28T10:38:32;11.10;;;4.57;;
5867;SDS011;2960;49.142;7.768;2023-02-28T10:41:05;9.43;;;3.87;;
5867;SDS011;2960;49.142;7.768;2023-02-28T10:43:35;9.30;;;3.90;;
5867;SDS011;2960;49.142;7.768;2023-02-28T10:46:03;10.97;;;3.90;;
5867;SDS011;2960;49.142;7.768;2023-02-28T10:48:42;10.40;;;4.00;;
5867;SDS011;2960;49.142;7.768;2023-02-28T10:51:14;10.60;;;4.43;;
5867;SDS011;2960;49.142;7.768;2023-02-28T10:53:47;14.20;;;3.97;;
5867;SDS011;2960;49.142;7.768;2023-02-28T10:56:17;11.63;;;4.43;;
5867;SDS011;2960;49.142;7.768;2023-02-28T10:58:53;9.97;;;4.23;;
5867;SDS011;2960;49.142;7.768;2023-02-28T11:01:24;11.60;;;3.97;;
5867;SDS011;2960;49.142;7.768;2023-02-28T11:04:11;10.30;;;4.20;;
5867;SDS011;2960;49.142;7.768;2023-02-28T11:06:44;10.53;;;4.30;;
5867;SDS011;2960;49.142;7.768;2023-02-28T11:09:20;10.60;;;4.93;;
5867;SDS011;2960;49.142;7.768;2023-02-28T11:11:52;11.40;;;4.93;;
5867;SDS011;2960;49.142;7.768;2023-02-28T11:14:20;10.73;;;4.20;;
5867;SDS011;2960;49.142;7.768;2023-02-28T11:16:50;12.50;;;4.40;;
5867;SDS011;2960;49.142;7.768;2023-02-28T11:19:20;10.17;;;4.10;;
5867;SDS011;2960;49.142;7.768;2023-02-28T11:21:53;10.10;;;3.90;;
5867;SDS011;2960;49.142;7.768;2023-02-28T11:24:23;11.23;;;4.30;;
5867;SDS011;2960;49.142;7.768;2023-02-28T11:26:53;10.07;;;4.20;;
5867;SDS011;2960;49.142;7.768;2023-02-28T11:29:23;10.67;;;4.40;;
5867;SDS011;2960;49.142;7.768;2023-02-28T11:32:03;10.97;;;4.37;;
5867;SDS011;2960;49.142;7.768;2023-02-28T11:34:40;12.00;;;4.53;;
5867;SDS011;2960;49.142;7.768;2023-02-28T11:37:11;14.50;;;4.60;;
5867;SDS011;2960;49.142;7.768;2023-02-28T11:39:45;10.17;;;4.60;;
5867;SDS011;2960;49.142;7.768;2023-02-28T11:42:19;10.67;;;4.87;;
5867;SDS011;2960;49.142;7.768;2023-02-28T11:45:19;10.63;;;4.70;;
5867;SDS011;2960;49.142;7.768;2023-02-28T11:48:00;11.10;;;4.60;;
5867;SDS011;2960;49.142;7.768;2023-02-28T11:50:39;11.37;;;4.70;;
5867;SDS011;2960;49.142;7.768;2023-02-28T11:53:19;11.50;;;4.87;;
5867;SDS011;2960;49.142;7.768;2023-02-28T11:56:03;12.97;;;4.67;;
5867;SDS011;2960;49.142;7.768;2023-02-28T11:58:43;10.33;;;4.73;;
5867;SDS011;2960;49.142;7.768;2023-02-28T12:01:22;11.57;;;5.10;;
5867;SDS011;2960;49.142;7.768;2023-02-28T12:04:15;16.60;;;5.60;;
5867;SDS011;2960;49.142;7.768;2023-02-28T12:06:54;13.83;;;5.23;;
5867;SDS011;2960;49.142;7.768;2023-02-28T12:12:22;16.87;;;5.60;;
5867;SDS011;2960;49.142;7.768;2023-02-28T12:18:04;11.93;;;5.40;;
5867;SDS011;2960;49.142;7.768;2023-02-28T12:20:59;11.20;;;5.00;;
5867;SDS011;2960;49.142;7.768;2023-02-28T12:26:32;12.70;;;5.33;;
5867;SDS011;2960;49.142;7.768;2023-02-28T12:29:07;11.27;;;4.80;;
5867;SDS011;2960;49.142;7.768;2023-02-28T12:31:45;11.57;;;4.60;;
5867;SDS011;2960;49.142;7.768;2023-02-28T12:34:17;13.27;;;5.20;;
5867;SDS011;2960;49.142;7.768;2023-02-28T12:36:49;14.93;;;5.67;;
5867;SDS011;2960;49.142;7.768;2023-02-28T12:39:23;12.60;;;5.47;;
5867;SDS011;2960;49.142;7.768;2023-02-28T12:41:58;12.63;;;4.90;;
5867;SDS011;2960;49.142;7.768;2023-02-28T12:44:30;12.10;;;5.30;;
5867;SDS011;2960;49.142;7.768;2023-02-28T12:47:04;12.83;;;5.20;;
5867;SDS011;2960;49.142;7.768;2023-02-28T12:49:41;12.77;;;5.10;;
5867;SDS011;2960;49.142;7.768;2023-02-28T12:52:13;13.00;;;5.43;;
5867;SDS011;2960;49.142;7.768;2023-02-28T12:54:49;11.70;;;4.93;;
5867;SDS011;2960;49.142;7.768;2023-02-28T12:57:23;12.20;;;4.90;;
5867;SDS011;2960;49.142;7.768;2023-02-28T13:00:03;13.10;;;5.00;;
5867;SDS011;2960;49.142;7.768;2023-02-28T13:02:44;11.17;;;4.70;;
5867;SDS011;2960;49.142;7.768;2023-02-28T13:05:37;11.53;;;4.80;;
5867;SDS011;2960;49.142;7.768;2023-02-28T13:11:33;12.00;;;5.00;;
5867;SDS011;2960;49.142;7.768;2023-02-28T13:14:06;11.73;;;5.00;;
5867;SDS011;2960;49.142;7.768;2023-02-28T13:16:51;12.30;;;5.10;;
5867;SDS011;2960;49.142;7.768;2023-02-28T13:19:27;11.80;;;5.00;;
5867;SDS011;2960;49.142;7.768;2023-02-28T13:21:56;12.17;;;5.37;;
5867;SDS011;2960;49.142;7.768;2023-02-28T13:24:36;11.10;;;4.67;;
5867;SDS011;2960;49.142;7.768;2023-02-28T13:27:20;13.07;;;5.27;;
5867;SDS011;2960;49.142;7.768;2023-02-28T13:33:30;11.67;;;4.87;;
5867;SDS011;2960;49.142;7.768;2023-02-28T13:36:07;17.10;;;5.30;;
5867;SDS011;2960;49.142;7.768;2023-02-28T13:38:49;11.93;;;5.03;;
5867;SDS011;2960;49.142;7.768;2023-02-28T13:44:16;13.00;;;5.93;;
5867;SDS011;2960;49.142;7.768;2023-02-28T13:49:50;11.97;;;5.90;;
5867;SDS011;2960;49.142;7.768;2023-02-28T13:52:19;11.93;;;5.80;;
5867;SDS011;2960;49.142;7.768;2023-02-28T13:57:58;13.63;;;5.70;;
5867;SDS011;2960;49.142;7.768;2023-02-28T14:00:49;12.33;;;5.20;;
5867;SDS011;2960;49.142;7.768;2023-02-28T14:03:41;13.80;;;6.00;;
5867;SDS011;2960;49.142;7.768;2023-02-28T14:06:23;13.20;;;5.70;;
5867;SDS011;2960;49.142;7.768;2023-02-28T14:08:57;12.20;;;5.70;;
5867;SDS011;2960;49.142;7.768;2023-02-28T14:11:29;13.03;;;5.53;;
5867;SDS011;2960;49.142;7.768;2023-02-28T14:13:59;14.07;;;6.10;;
5867;SDS011;2960;49.142;7.768;2023-02-28T14:16:36;12.43;;;5.67;;
5867;SDS011;2960;49.142;7.768;2023-02-28T14:19:10;12.20;;;6.13;;
5867;SDS011;2960;49.142;7.768;2023-02-28T14:21:43;13.73;;;5.63;;
5867;SDS011;2960;49.142;7.768;2023-02-28T14:24:32;13.80;;;5.70;;
5867;SDS011;2960;49.142;7.768;2023-02-28T14:27:26;12.87;;;6.03;;
5867;SDS011;2960;49.142;7.768;2023-02-28T14:33:13;11.70;;;5.13;;
5867;SDS011;2960;49.142;7.768;2023-02-28T14:35:59;11.77;;;5.60;;
5867;SDS011;2960;49.142;7.768;2023-02-28T14:38:36;11.57;;;5.20;;
5867;SDS011;2960;49.142;7.768;2023-02-28T14:41:14;12.40;;;5.63;;
5867;SDS011;2960;49.142;7.768;2023-02-28T14:43:48;12.67;;;5.17;;
5867;SDS011;2960;49.142;7.768;2023-02-28T14:46:21;11.40;;;4.70;;
5867;SDS011;2960;49.142;7.768;2023-02-28T14:48:54;13.83;;;5.70;;
5867;SDS011;2960;49.142;7.768;2023-02-28T14:51:22;12.60;;;5.60;;
5867;SDS011;2960;49.142;7.768;2023-02-28T14:53:51;12.17;;;5.70;;
5867;SDS011;2960;49.142;7.768;2023-02-28T14:56:24;12.47;;;5.53;;
5867;SDS011;2960;49.142;7.768;2023-02-28T14:58:57;10.80;;;4.83;;
5867;SDS011;2960;49.142;7.768;2023-02-28T15:01:25;11.87;;;5.17;;
5867;SDS011;2960;49.142;7.768;2023-02-28T15:03:58;12.73;;;5.07;;
5867;SDS011;2960;49.142;7.768;2023-02-28T15:06:28;11.63;;;5.20;;
5867;SDS011;2960;49.142;7.768;2023-02-28T15:09:06;12.07;;;5.23;;
5867;SDS011;2960;49.142;7.768;2023-02-28T15:11:36;12.13;;;5.37;;
5867;SDS011;2960;49.142;7.768;2023-02-28T15:14:05;12.47;;;5.70;;
5867;SDS011;2960;49.142;7.768;2023-02-28T15:16:33;13.47;;;5.33;;
5867;SDS011;2960;49.142;7.768;2023-02-28T15:19:05;12.53;;;5.30;;
5867;SDS011;2960;49.142;7.768;2023-02-28T15:21:40;14.13;;;5.30;;
5867;SDS011;2960;49.142;7.768;2023-02-28T15:24:15;10.87;;;5.17;;
5867;SDS011;2960;49.142;7.768;2023-02-28T15:26:50;12.23;;;5.50;;
5867;SDS011;2960;49.142;7.768;2023-02-28T15:29:23;10.90;;;4.40;;
5867;SDS011;2960;49.142;7.768;2023-02-28T15:31:55;12.30;;;5.17;;
5867;SDS011;2960;49.142;7.768;2023-02-28T15:34:30;12.30;;;4.90;;
5867;SDS011;2960;49.142;7.768;2023-02-28T15:37:06;11.63;;;4.27;;
5867;SDS011;2960;49.142;7.768;2023-02-28T15:39:53;10.40;;;4.10;;
5867;SDS011;2960;49.142;7.768;2023-02-28T15:42:23;11.07;;;4.60;;
5867;SDS011;2960;49.142;7.768;2023-02-28T15:44:56;11.10;;;4.33;;
5867;SDS011;2960;49.142;7.768;2023-02-28T15:47:25;10.77;;;4.80;;
5867;SDS011;2960;49.142;7.768;2023-02-28T15:49:56;11.73;;;4.50;;
5867;SDS011;2960;49.142;7.768;2023-02-28T15:52:27;12.10;;;5.07;;
5867;SDS011;2960;49.142;7.768;2023-02-28T15:55:06;13.30;;;5.30;;
5867;SDS011;2960;49.142;7.768;2023-02-28T15:57:38;12.33;;;5.00;;
5867;SDS011;2960;49.142;7.768;2023-02-28T16:00:09;11.20;;;4.60;;
5867;SDS011;2960;49.142;7.768;2023-02-28T16:02:40;12.73;;;4.43;;
5867;SDS011;2960;49.142;7.768;2023-02-28T16:05:28;11.70;;;4.97;;
5867;SDS011;2960;49.142;7.768;2023-02-28T16:07:58;12.40;;;4.90;;
5867;SDS011;2960;49.142;7.768;2023-02-28T16:10:35;11.00;;;4.57;;
5867;SDS011;2960;49.142;7.768;2023-02-28T16:13:02;11.63;;;4.57;;
5867;SDS011;2960;49.142;7.768;2023-02-28T16:15:30;11.20;;;4.40;;
5867;SDS011;2960;49.142;7.768;2023-02-28T16:18:07;11.57;;;4.50;;
5867;SDS011;2960;49.142;7.768;2023-02-28T16:20:37;11.43;;;4.67;;
5867;SDS011;2960;49.142;7.768;2023-02-28T16:23:04;10.53;;;4.30;;